Relevés horaires Chievres (Belgique)


Relevés horaires à Chievres - Mardi 31 Oct. 2017
Heure UTC1 Température [°C] Vent [km/h] Hum. [%] Pres.4 [hPa] Visi. [Km] Nébu. [octa] Préc.5 [mm] Cond.
2m. Res. Ros. Dir.2 Vit. Moy. Raf.3
23:00 7.0 5.6 5.2 SSO 7.4 -- 9.3 88 1025.4(-0.1/3h) 13 -- -- --
22:00 7.3 6.5 5.5 SSO 5.6 -- 9.3 88 1025.5(0.0/3h) 14 -- -- --
21:00 7.9 6.7 5.8 SO 7.4 -- 11.1 87 1025.7(-0.4/3h) 14 -- -- --
20:00 8.0 6.8 5.8 SSO 7.4 -- 11.1 86 1025.5(-0.5/3h) 15 -- -- --
19:00 8.6 7.1 6.2 SSO 9.3 -- 11.1 85 1025.5(-0.5/3h) 14 -- -- --
18:00 9.1 8.1 6.8 SSO 7.4 -- 13.0 85 1026(-0.1/3h) 14 -- -- NA
17:00 9.5 8.6 6.9 SSO 7.4 -- 9.3 84 1025.9(-0.8/3h) 17 -- -- --
16:00 10.0 9.6 6.7 SSO 5.6 -- 11.1 80 1026(-1.2/3h) 19 -- -- --
15:00 10.5 9.7 6.3 SSO 7.4 -- 13.0 75 1026.2(-1.5/3h) 17 -- -- NA
14:00 10.6 9.5 6.2 SSO 9.3 -- 13.0 74 1026.7(-1.7/3h) 18 -- -- --
13:00 11.1 10.1 6.1 SO 9.3 -- 11.1 71 1027.2(-1.6/3h) 19 -- -- NA
12:00 10.9 9.8 6.2 SO 9.3 -- 13.0 73 1027.7(-1.3/3h) 20 -- -- --
11:00 10.1 8.9 6.4 SO 9.3 -- 11.1 78 1028.5(-0.3/3h) 20 -- -- --
10:00 8.5 7.4 6.3 SSO 7.4 -- 11.1 86 1029(0.0/3h) 14 -- -- --
09:00 9.1 8.6 6.6 SO 5.6 -- 9.3 84 1029.2(0.5/3h) 13 -- -- --
08:00 6.0 6.0 5.5 S 3.7 -- 7.4 97 1029(0.0/3h) 7 -- -- --
07:00 4.3 4.3 4.3 SSO 3.7 -- 5.6 100 1029(0.0/3h) 5 -- -- --
06:00 5.1 5.1 4.9 SSO 3.7 -- 5.6 99 1028.7(-0.3/3h) 6 -- -- --
05:00 6.0 6.0 5.8 SO 3.7 -- 5.6 99 1029(-0.5/3h) 7 -- -- --
04:00 6.1 6.1 5.9 NNO 3.7 -- 3.7 99 1029(-0.6/3h) 6 -- -- --
03:00 5.9 5.9 5.7 NNO 1.9 -- 3.7 99 1029(-1.0/3h) 5 -- -- --
02:00 5.4 5.4 5.2 NNO 1.9 -- 3.7 99 1029.5(-0.7/3h) 7 -- -- --
01:00 4.5 4.5 4.5 SSO 3.7 -- 3.7 100 1029.7(-0.7/3h) 6 -- -- --
00:00 5.0 5.0 4.7 NNO 1.9 -- 3.7 98 1030.2(-0.2/3h) 6 -- -- --

1 Coordinated Universal Time. Actuellement il est 01:00 locale et 23:00 UTC.

2 Le vent souffle depuis la direction indiquée vers la direction oposée.

3 Les rafales max. sont disponible 40 min après l'heure du relevé.

4 Pour les stations d'altitude (plus de 600m) le géopotentiel du niveau le plus proche de la pression obligatoire est indiqué.

5 Les stations disposant d'un diffuseur peuvent indiquer "trace". Cela signifie que des précipitations ont touchés le sol mais que la quantité est inférieure à 0.1 mm.

Récapitulatif de la journée
Température [°C] Vent [km/h] Ensoleillement4 [h] Precipitations totale5 [mm] Pression [Hpa]
Min1 Max.2 Moy.3 Max. Min Max.
4.0 11.6 0 13.0 0 h 0 min 0 1025.4 1030.2

1 Température minimale relevée entre 18:00 UTC la veille et 18:00 UTC le jour donné.

2 Température maximale relevée entre 06:00 UTC le jour donné et 06:00 UTC le lendemain.

3 Vent moyen de la journée basé sur les relevés horaires.

4 Ensoleillement en heures relevé entre 06:00 UTC la veille et 06:00 UTC le jour donné.

5 Précipitations totales tombées entre 06:00 UTC la jour donné et 06:00 UTC le lendemain.

Graphiques horaires